sensor_id;sensor_type;location;lat;lon;timestamp;P1;durP1;ratioP1;P2;durP2;ratioP2
22030;SDS011;11179;52.106;21.024;2022-07-01T00:01:43;14.53;;;7.43;;
22030;SDS011;11179;52.106;21.024;2022-07-01T00:04:10;16.80;;;7.13;;
22030;SDS011;11179;52.106;21.024;2022-07-01T00:06:36;14.60;;;7.50;;
22030;SDS011;11179;52.106;21.024;2022-07-01T00:09:02;20.40;;;7.97;;
22030;SDS011;11179;52.106;21.024;2022-07-01T00:11:29;18.40;;;7.47;;
22030;SDS011;11179;52.106;21.024;2022-07-01T00:13:55;12.43;;;8.10;;
22030;SDS011;11179;52.106;21.024;2022-07-01T00:16:21;17.87;;;7.70;;
22030;SDS011;11179;52.106;21.024;2022-07-01T00:18:46;17.87;;;9.10;;
22030;SDS011;11179;52.106;21.024;2022-07-01T00:21:11;18.83;;;9.43;;
22030;SDS011;11179;52.106;21.024;2022-07-01T00:23:37;18.30;;;9.60;;
22030;SDS011;11179;52.106;21.024;2022-07-01T00:26:03;26.80;;;9.87;;
22030;SDS011;11179;52.106;21.024;2022-07-01T00:28:28;20.60;;;9.00;;
22030;SDS011;11179;52.106;21.024;2022-07-01T00:30:54;14.37;;;8.67;;
22030;SDS011;11179;52.106;21.024;2022-07-01T00:33:19;18.57;;;8.90;;
22030;SDS011;11179;52.106;21.024;2022-07-01T00:35:44;18.00;;;9.43;;
22030;SDS011;11179;52.106;21.024;2022-07-01T00:38:09;17.57;;;9.80;;
22030;SDS011;11179;52.106;21.024;2022-07-01T00:40:35;16.93;;;9.83;;
22030;SDS011;11179;52.106;21.024;2022-07-01T00:43:00;19.53;;;9.77;;
22030;SDS011;11179;52.106;21.024;2022-07-01T00:45:26;17.30;;;9.50;;
22030;SDS011;11179;52.106;21.024;2022-07-01T00:47:53;16.27;;;9.33;;
22030;SDS011;11179;52.106;21.024;2022-07-01T00:50:18;21.30;;;9.97;;
22030;SDS011;11179;52.106;21.024;2022-07-01T00:52:44;17.73;;;10.90;;
22030;SDS011;11179;52.106;21.024;2022-07-01T00:55:11;23.93;;;10.97;;
22030;SDS011;11179;52.106;21.024;2022-07-01T00:57:38;18.67;;;10.70;;
22030;SDS011;11179;52.106;21.024;2022-07-01T01:00:15;19.50;;;10.77;;
22030;SDS011;11179;52.106;21.024;2022-07-01T01:02:46;19.70;;;9.60;;
22030;SDS011;11179;52.106;21.024;2022-07-01T01:05:11;21.97;;;10.77;;
22030;SDS011;11179;52.106;21.024;2022-07-01T01:07:37;15.03;;;9.87;;
22030;SDS011;11179;52.106;21.024;2022-07-01T01:10:03;20.43;;;10.23;;
22030;SDS011;11179;52.106;21.024;2022-07-01T01:12:29;17.80;;;9.70;;
22030;SDS011;11179;52.106;21.024;2022-07-01T01:14:55;18.83;;;9.63;;
22030;SDS011;11179;52.106;21.024;2022-07-01T01:17:22;17.53;;;11.13;;
22030;SDS011;11179;52.106;21.024;2022-07-01T01:19:48;15.33;;;9.90;;
22030;SDS011;11179;52.106;21.024;2022-07-01T01:22:16;16.33;;;9.83;;
22030;SDS011;11179;52.106;21.024;2022-07-01T01:24:43;18.13;;;10.50;;
22030;SDS011;11179;52.106;21.024;2022-07-01T01:27:09;15.00;;;10.27;;
22030;SDS011;11179;52.106;21.024;2022-07-01T01:29:35;16.00;;;10.17;;
22030;SDS011;11179;52.106;21.024;2022-07-01T01:32:02;23.00;;;10.03;;
22030;SDS011;11179;52.106;21.024;2022-07-01T01:34:30;20.53;;;10.53;;
22030;SDS011;11179;52.106;21.024;2022-07-01T01:36:56;17.90;;;10.30;;
22030;SDS011;11179;52.106;21.024;2022-07-01T01:39:22;21.80;;;11.33;;
22030;SDS011;11179;52.106;21.024;2022-07-01T01:41:48;19.73;;;12.10;;
22030;SDS011;11179;52.106;21.024;2022-07-01T01:44:13;21.07;;;12.70;;
22030;SDS011;11179;52.106;21.024;2022-07-01T01:46:38;21.10;;;11.53;;
22030;SDS011;11179;52.106;21.024;2022-07-01T01:49:04;22.73;;;12.43;;
22030;SDS011;11179;52.106;21.024;2022-07-01T01:51:30;23.90;;;12.43;;
22030;SDS011;11179;52.106;21.024;2022-07-01T01:53:56;22.23;;;13.27;;
22030;SDS011;11179;52.106;21.024;2022-07-01T01:56:22;21.77;;;12.50;;
22030;SDS011;11179;52.106;21.024;2022-07-01T01:58:48;22.70;;;13.13;;
22030;SDS011;11179;52.106;21.024;2022-07-01T02:01:14;22.93;;;14.00;;
22030;SDS011;11179;52.106;21.024;2022-07-01T02:03:41;22.30;;;13.20;;
22030;SDS011;11179;52.106;21.024;2022-07-01T02:06:08;24.27;;;13.73;;
22030;SDS011;11179;52.106;21.024;2022-07-01T02:08:34;24.50;;;13.13;;
22030;SDS011;11179;52.106;21.024;2022-07-01T02:11:03;23.97;;;13.30;;
22030;SDS011;11179;52.106;21.024;2022-07-01T02:13:29;26.30;;;15.13;;
22030;SDS011;11179;52.106;21.024;2022-07-01T02:15:54;27.30;;;13.47;;
22030;SDS011;11179;52.106;21.024;2022-07-01T02:18:20;24.77;;;14.20;;
22030;SDS011;11179;52.106;21.024;2022-07-01T02:20:45;22.83;;;12.40;;
22030;SDS011;11179;52.106;21.024;2022-07-01T02:23:11;22.27;;;13.57;;
22030;SDS011;11179;52.106;21.024;2022-07-01T02:25:36;24.80;;;13.80;;
22030;SDS011;11179;52.106;21.024;2022-07-01T02:28:02;25.93;;;13.80;;
22030;SDS011;11179;52.106;21.024;2022-07-01T02:30:28;19.57;;;12.30;;
22030;SDS011;11179;52.106;21.024;2022-07-01T02:32:55;20.17;;;13.50;;
22030;SDS011;11179;52.106;21.024;2022-07-01T02:35:21;23.73;;;13.70;;
22030;SDS011;11179;52.106;21.024;2022-07-01T02:37:47;41.40;;;16.57;;
22030;SDS011;11179;52.106;21.024;2022-07-01T02:40:13;37.00;;;14.97;;
22030;SDS011;11179;52.106;21.024;2022-07-01T02:42:39;38.37;;;14.70;;
22030;SDS011;11179;52.106;21.024;2022-07-01T02:45:06;26.33;;;13.53;;
22030;SDS011;11179;52.106;21.024;2022-07-01T02:49:59;26.40;;;13.33;;
22030;SDS011;11179;52.106;21.024;2022-07-01T02:52:25;29.63;;;13.53;;
22030;SDS011;11179;52.106;21.024;2022-07-01T02:54:52;26.03;;;14.00;;
22030;SDS011;11179;52.106;21.024;2022-07-01T02:57:17;23.37;;;13.87;;
22030;SDS011;11179;52.106;21.024;2022-07-01T02:59:42;40.03;;;14.37;;
22030;SDS011;11179;52.106;21.024;2022-07-01T03:02:08;21.63;;;14.40;;
22030;SDS011;11179;52.106;21.024;2022-07-01T03:04:33;23.00;;;13.70;;
22030;SDS011;11179;52.106;21.024;2022-07-01T03:06:58;18.77;;;13.07;;
22030;SDS011;11179;52.106;21.024;2022-07-01T03:09:24;22.33;;;13.80;;
22030;SDS011;11179;52.106;21.024;2022-07-01T03:11:49;24.97;;;14.03;;
22030;SDS011;11179;52.106;21.024;2022-07-01T03:14:15;24.63;;;14.67;;
22030;SDS011;11179;52.106;21.024;2022-07-01T03:16:40;24.90;;;14.20;;
22030;SDS011;11179;52.106;21.024;2022-07-01T03:19:06;27.60;;;13.97;;
22030;SDS011;11179;52.106;21.024;2022-07-01T03:21:32;24.80;;;14.07;;
22030;SDS011;11179;52.106;21.024;2022-07-01T03:23:58;25.77;;;14.53;;
22030;SDS011;11179;52.106;21.024;2022-07-01T03:26:23;22.77;;;13.80;;
22030;SDS011;11179;52.106;21.024;2022-07-01T03:28:49;18.37;;;12.57;;
22030;SDS011;11179;52.106;21.024;2022-07-01T03:31:14;23.63;;;13.30;;
22030;SDS011;11179;52.106;21.024;2022-07-01T03:33:39;20.90;;;13.90;;
22030;SDS011;11179;52.106;21.024;2022-07-01T03:36:05;23.20;;;12.47;;
22030;SDS011;11179;52.106;21.024;2022-07-01T03:38:30;21.40;;;13.07;;
22030;SDS011;11179;52.106;21.024;2022-07-01T03:40:56;22.03;;;13.77;;
22030;SDS011;11179;52.106;21.024;2022-07-01T03:43:21;26.40;;;13.93;;
22030;SDS011;11179;52.106;21.024;2022-07-01T03:45:46;26.10;;;13.80;;
22030;SDS011;11179;52.106;21.024;2022-07-01T03:48:12;22.43;;;13.37;;
22030;SDS011;11179;52.106;21.024;2022-07-01T03:50:37;28.20;;;15.70;;
22030;SDS011;11179;52.106;21.024;2022-07-01T03:53:03;22.03;;;14.40;;
22030;SDS011;11179;52.106;21.024;2022-07-01T03:55:46;21.23;;;13.70;;
22030;SDS011;11179;52.106;21.024;2022-07-01T03:58:12;24.30;;;14.30;;
22030;SDS011;11179;52.106;21.024;2022-07-01T04:00:37;20.13;;;14.07;;
22030;SDS011;11179;52.106;21.024;2022-07-01T04:03:03;19.50;;;13.47;;
22030;SDS011;11179;52.106;21.024;2022-07-01T04:05:33;22.57;;;14.63;;
22030;SDS011;11179;52.106;21.024;2022-07-01T04:08:00;22.80;;;14.93;;
22030;SDS011;11179;52.106;21.024;2022-07-01T04:10:27;25.90;;;13.80;;
22030;SDS011;11179;52.106;21.024;2022-07-01T04:12:55;21.20;;;15.20;;
22030;SDS011;11179;52.106;21.024;2022-07-01T04:15:20;21.23;;;15.10;;
22030;SDS011;11179;52.106;21.024;2022-07-01T04:17:45;19.60;;;14.90;;
22030;SDS011;11179;52.106;21.024;2022-07-01T04:20:11;20.60;;;14.93;;
22030;SDS011;11179;52.106;21.024;2022-07-01T04:22:36;22.33;;;15.30;;
22030;SDS011;11179;52.106;21.024;2022-07-01T04:25:02;23.23;;;14.60;;
22030;SDS011;11179;52.106;21.024;2022-07-01T04:27:29;19.37;;;13.40;;
22030;SDS011;11179;52.106;21.024;2022-07-01T04:29:55;23.80;;;14.63;;
22030;SDS011;11179;52.106;21.024;2022-07-01T04:32:22;22.10;;;14.47;;
22030;SDS011;11179;52.106;21.024;2022-07-01T04:34:47;27.23;;;14.47;;
22030;SDS011;11179;52.106;21.024;2022-07-01T04:37:12;19.00;;;14.70;;
22030;SDS011;11179;52.106;21.024;2022-07-01T04:39:38;19.97;;;15.30;;
22030;SDS011;11179;52.106;21.024;2022-07-01T04:42:03;22.17;;;14.70;;
22030;SDS011;11179;52.106;21.024;2022-07-01T04:44:30;27.80;;;14.63;;
22030;SDS011;11179;52.106;21.024;2022-07-01T04:46:57;19.57;;;14.73;;
22030;SDS011;11179;52.106;21.024;2022-07-01T04:49:22;21.50;;;14.93;;
22030;SDS011;11179;52.106;21.024;2022-07-01T04:51:48;17.80;;;13.80;;
22030;SDS011;11179;52.106;21.024;2022-07-01T04:54:13;21.13;;;14.77;;
22030;SDS011;11179;52.106;21.024;2022-07-01T04:56:39;21.93;;;15.43;;
22030;SDS011;11179;52.106;21.024;2022-07-01T04:59:05;22.80;;;15.50;;
22030;SDS011;11179;52.106;21.024;2022-07-01T05:01:30;18.53;;;14.13;;
22030;SDS011;11179;52.106;21.024;2022-07-01T05:03:56;21.73;;;14.47;;
22030;SDS011;11179;52.106;21.024;2022-07-01T05:06:22;24.23;;;15.33;;
22030;SDS011;11179;52.106;21.024;2022-07-01T05:08:48;21.23;;;13.83;;
22030;SDS011;11179;52.106;21.024;2022-07-01T05:11:13;22.27;;;15.17;;
22030;SDS011;11179;52.106;21.024;2022-07-01T05:13:38;20.70;;;16.03;;
22030;SDS011;11179;52.106;21.024;2022-07-01T05:16:04;21.17;;;15.70;;
22030;SDS011;11179;52.106;21.024;2022-07-01T05:18:30;21.60;;;15.07;;
22030;SDS011;11179;52.106;21.024;2022-07-01T05:21:14;22.90;;;16.13;;
22030;SDS011;11179;52.106;21.024;2022-07-01T05:23:59;24.40;;;14.90;;
22030;SDS011;11179;52.106;21.024;2022-07-01T05:26:24;22.83;;;16.37;;
22030;SDS011;11179;52.106;21.024;2022-07-01T05:28:51;26.43;;;16.47;;
22030;SDS011;11179;52.106;21.024;2022-07-01T05:31:17;22.50;;;15.47;;
22030;SDS011;11179;52.106;21.024;2022-07-01T05:33:43;21.73;;;15.97;;
22030;SDS011;11179;52.106;21.024;2022-07-01T05:36:09;22.80;;;14.90;;
22030;SDS011;11179;52.106;21.024;2022-07-01T05:38:35;22.73;;;16.57;;
22030;SDS011;11179;52.106;21.024;2022-07-01T05:41:01;26.00;;;17.20;;
22030;SDS011;11179;52.106;21.024;2022-07-01T05:43:26;21.40;;;16.20;;
22030;SDS011;11179;52.106;21.024;2022-07-01T05:45:51;21.60;;;15.80;;
22030;SDS011;11179;52.106;21.024;2022-07-01T05:48:17;20.23;;;15.20;;
22030;SDS011;11179;52.106;21.024;2022-07-01T05:50:42;21.93;;;16.00;;
22030;SDS011;11179;52.106;21.024;2022-07-01T05:53:08;21.03;;;15.43;;
22030;SDS011;11179;52.106;21.024;2022-07-01T05:55:34;25.90;;;15.80;;
22030;SDS011;11179;52.106;21.024;2022-07-01T05:57:59;33.20;;;17.30;;
22030;SDS011;11179;52.106;21.024;2022-07-01T06:00:26;19.93;;;14.87;;
22030;SDS011;11179;52.106;21.024;2022-07-01T06:02:52;22.30;;;16.63;;
22030;SDS011;11179;52.106;21.024;2022-07-01T06:05:17;22.70;;;14.40;;
22030;SDS011;11179;52.106;21.024;2022-07-01T06:07:43;25.30;;;14.20;;
22030;SDS011;11179;52.106;21.024;2022-07-01T06:10:08;26.67;;;16.07;;
22030;SDS011;11179;52.106;21.024;2022-07-01T06:12:35;19.00;;;14.70;;
22030;SDS011;11179;52.106;21.024;2022-07-01T06:15:01;25.70;;;16.23;;
22030;SDS011;11179;52.106;21.024;2022-07-01T06:17:27;38.40;;;16.97;;
22030;SDS011;11179;52.106;21.024;2022-07-01T06:19:52;20.40;;;14.83;;
22030;SDS011;11179;52.106;21.024;2022-07-01T06:22:18;20.00;;;14.67;;
22030;SDS011;11179;52.106;21.024;2022-07-01T06:24:45;23.93;;;15.10;;
22030;SDS011;11179;52.106;21.024;2022-07-01T06:27:11;19.70;;;14.77;;
22030;SDS011;11179;52.106;21.024;2022-07-01T06:29:36;26.97;;;13.87;;
22030;SDS011;11179;52.106;21.024;2022-07-01T06:32:03;22.63;;;14.87;;
22030;SDS011;11179;52.106;21.024;2022-07-01T06:34:29;24.87;;;14.23;;
22030;SDS011;11179;52.106;21.024;2022-07-01T06:36:54;17.57;;;14.20;;
22030;SDS011;11179;52.106;21.024;2022-07-01T06:39:20;19.33;;;14.30;;
22030;SDS011;11179;52.106;21.024;2022-07-01T06:41:46;18.87;;;13.70;;
22030;SDS011;11179;52.106;21.024;2022-07-01T06:44:11;29.60;;;14.90;;
22030;SDS011;11179;52.106;21.024;2022-07-01T06:46:37;21.03;;;14.47;;
22030;SDS011;11179;52.106;21.024;2022-07-01T06:49:03;18.60;;;14.40;;
22030;SDS011;11179;52.106;21.024;2022-07-01T06:51:28;20.73;;;13.43;;
22030;SDS011;11179;52.106;21.024;2022-07-01T06:53:54;28.57;;;16.40;;
22030;SDS011;11179;52.106;21.024;2022-07-01T06:56:19;20.33;;;13.40;;
22030;SDS011;11179;52.106;21.024;2022-07-01T06:58:45;21.10;;;14.27;;
22030;SDS011;11179;52.106;21.024;2022-07-01T07:01:11;18.50;;;13.30;;
22030;SDS011;11179;52.106;21.024;2022-07-01T07:03:36;19.73;;;14.33;;
22030;SDS011;11179;52.106;21.024;2022-07-01T07:06:02;23.03;;;14.03;;
22030;SDS011;11179;52.106;21.024;2022-07-01T07:08:28;25.90;;;14.70;;
22030;SDS011;11179;52.106;21.024;2022-07-01T07:10:55;23.97;;;13.60;;
22030;SDS011;11179;52.106;21.024;2022-07-01T07:13:21;20.87;;;13.93;;
22030;SDS011;11179;52.106;21.024;2022-07-01T07:15:47;33.03;;;15.30;;
22030;SDS011;11179;52.106;21.024;2022-07-01T07:18:12;78.27;;;19.13;;
22030;SDS011;11179;52.106;21.024;2022-07-01T07:20:38;22.20;;;14.33;;
22030;SDS011;11179;52.106;21.024;2022-07-01T07:23:03;25.63;;;13.40;;
22030;SDS011;11179;52.106;21.024;2022-07-01T07:25:29;23.10;;;14.33;;
22030;SDS011;11179;52.106;21.024;2022-07-01T07:27:54;30.07;;;14.87;;
22030;SDS011;11179;52.106;21.024;2022-07-01T07:30:20;29.90;;;15.23;;
22030;SDS011;11179;52.106;21.024;2022-07-01T07:32:45;24.30;;;15.63;;
22030;SDS011;11179;52.106;21.024;2022-07-01T07:35:11;30.57;;;14.97;;
22030;SDS011;11179;52.106;21.024;2022-07-01T07:37:37;20.63;;;14.03;;
22030;SDS011;11179;52.106;21.024;2022-07-01T07:40:03;21.00;;;13.77;;
22030;SDS011;11179;52.106;21.024;2022-07-01T07:42:31;26.70;;;13.77;;
22030;SDS011;11179;52.106;21.024;2022-07-01T07:44:57;23.90;;;13.93;;
22030;SDS011;11179;52.106;21.024;2022-07-01T07:47:23;19.57;;;14.70;;
22030;SDS011;11179;52.106;21.024;2022-07-01T07:49:48;27.67;;;14.00;;
22030;SDS011;11179;52.106;21.024;2022-07-01T07:52:14;20.83;;;13.90;;
22030;SDS011;11179;52.106;21.024;2022-07-01T07:54:39;23.60;;;13.50;;
22030;SDS011;11179;52.106;21.024;2022-07-01T07:57:04;18.03;;;12.67;;
22030;SDS011;11179;52.106;21.024;2022-07-01T07:59:31;19.93;;;12.73;;
22030;SDS011;11179;52.106;21.024;2022-07-01T08:01:57;22.90;;;12.03;;
22030;SDS011;11179;52.106;21.024;2022-07-01T08:04:22;22.77;;;12.27;;
22030;SDS011;11179;52.106;21.024;2022-07-01T08:06:48;19.87;;;13.77;;
22030;SDS011;11179;52.106;21.024;2022-07-01T08:09:13;22.23;;;13.27;;
22030;SDS011;11179;52.106;21.024;2022-07-01T08:11:38;24.50;;;11.97;;
22030;SDS011;11179;52.106;21.024;2022-07-01T08:14:04;18.67;;;10.97;;
22030;SDS011;11179;52.106;21.024;2022-07-01T08:16:29;19.53;;;12.03;;
22030;SDS011;11179;52.106;21.024;2022-07-01T08:18:55;18.37;;;11.63;;
22030;SDS011;11179;52.106;21.024;2022-07-01T08:21:20;26.73;;;11.33;;
22030;SDS011;11179;52.106;21.024;2022-07-01T08:23:46;16.70;;;11.20;;
22030;SDS011;11179;52.106;21.024;2022-07-01T08:26:11;21.50;;;11.40;;
22030;SDS011;11179;52.106;21.024;2022-07-01T08:28:39;19.13;;;11.50;;
22030;SDS011;11179;52.106;21.024;2022-07-01T08:31:04;23.30;;;12.37;;
22030;SDS011;11179;52.106;21.024;2022-07-01T08:33:29;14.33;;;10.53;;
22030;SDS011;11179;52.106;21.024;2022-07-01T08:35:55;18.60;;;10.57;;
22030;SDS011;11179;52.106;21.024;2022-07-01T08:38:20;19.23;;;10.80;;
22030;SDS011;11179;52.106;21.024;2022-07-01T08:40:46;16.90;;;11.27;;
22030;SDS011;11179;52.106;21.024;2022-07-01T08:43:11;15.33;;;9.70;;
22030;SDS011;11179;52.106;21.024;2022-07-01T08:45:36;16.60;;;10.20;;
22030;SDS011;11179;52.106;21.024;2022-07-01T08:48:03;14.03;;;9.00;;
22030;SDS011;11179;52.106;21.024;2022-07-01T08:50:38;13.30;;;9.83;;
22030;SDS011;11179;52.106;21.024;2022-07-01T08:53:06;30.20;;;11.83;;
22030;SDS011;11179;52.106;21.024;2022-07-01T08:55:32;15.40;;;9.50;;
22030;SDS011;11179;52.106;21.024;2022-07-01T08:58:19;12.63;;;9.50;;
22030;SDS011;11179;52.106;21.024;2022-07-01T09:00:46;13.67;;;9.10;;
22030;SDS011;11179;52.106;21.024;2022-07-01T09:03:11;18.23;;;9.53;;
22030;SDS011;11179;52.106;21.024;2022-07-01T09:05:36;22.73;;;9.80;;
22030;SDS011;11179;52.106;21.024;2022-07-01T09:08:03;16.70;;;9.53;;
22030;SDS011;11179;52.106;21.024;2022-07-01T09:10:31;18.07;;;10.00;;
22030;SDS011;11179;52.106;21.024;2022-07-01T09:13:06;16.10;;;9.40;;
22030;SDS011;11179;52.106;21.024;2022-07-01T09:15:36;13.50;;;10.23;;
22030;SDS011;11179;52.106;21.024;2022-07-01T09:20:30;14.50;;;10.03;;
22030;SDS011;11179;52.106;21.024;2022-07-01T09:22:57;12.70;;;9.70;;
22030;SDS011;11179;52.106;21.024;2022-07-01T09:25:30;11.90;;;9.40;;
22030;SDS011;11179;52.106;21.024;2022-07-01T09:28:04;17.27;;;10.17;;
22030;SDS011;11179;52.106;21.024;2022-07-01T09:30:29;16.57;;;9.27;;
22030;SDS011;11179;52.106;21.024;2022-07-01T09:35:39;16.13;;;9.60;;
22030;SDS011;11179;52.106;21.024;2022-07-01T09:38:06;14.77;;;9.37;;
22030;SDS011;11179;52.106;21.024;2022-07-01T09:43:45;18.40;;;9.43;;
22030;SDS011;11179;52.106;21.024;2022-07-01T09:46:08;14.33;;;9.50;;
22030;SDS011;11179;52.106;21.024;2022-07-01T09:51:04;15.70;;;9.80;;
22030;SDS011;11179;52.106;21.024;2022-07-01T09:53:31;13.80;;;10.37;;
22030;SDS011;11179;52.106;21.024;2022-07-01T09:55:57;15.07;;;10.60;;
22030;SDS011;11179;52.106;21.024;2022-07-01T09:58:23;16.70;;;10.90;;
22030;SDS011;11179;52.106;21.024;2022-07-01T10:00:49;19.67;;;9.77;;
22030;SDS011;11179;52.106;21.024;2022-07-01T10:03:17;24.20;;;10.00;;
22030;SDS011;11179;52.106;21.024;2022-07-01T10:08:50;17.63;;;10.40;;
22030;SDS011;11179;52.106;21.024;2022-07-01T10:14:08;13.37;;;9.33;;
22030;SDS011;11179;52.106;21.024;2022-07-01T10:16:35;25.57;;;9.20;;
22030;SDS011;11179;52.106;21.024;2022-07-01T10:19:24;18.10;;;9.03;;
22030;SDS011;11179;52.106;21.024;2022-07-01T10:21:53;14.30;;;9.10;;
22030;SDS011;11179;52.106;21.024;2022-07-01T10:24:22;14.10;;;8.90;;
22030;SDS011;11179;52.106;21.024;2022-07-01T10:26:48;12.83;;;8.53;;
22030;SDS011;11179;52.106;21.024;2022-07-01T10:32:03;13.40;;;9.30;;
22030;SDS011;11179;52.106;21.024;2022-07-01T10:34:50;17.33;;;9.70;;
22030;SDS011;11179;52.106;21.024;2022-07-01T10:37:27;14.40;;;9.07;;
22030;SDS011;11179;52.106;21.024;2022-07-01T10:39:59;13.30;;;9.87;;
22030;SDS011;11179;52.106;21.024;2022-07-01T10:42:32;17.80;;;9.90;;
22030;SDS011;11179;52.106;21.024;2022-07-01T10:47:32;24.37;;;8.87;;
22030;SDS011;11179;52.106;21.024;2022-07-01T10:49:59;11.77;;;8.23;;
22030;SDS011;11179;52.106;21.024;2022-07-01T10:52:37;12.70;;;8.73;;
22030;SDS011;11179;52.106;21.024;2022-07-01T10:55:05;11.33;;;8.00;;
22030;SDS011;11179;52.106;21.024;2022-07-01T11:04:58;14.70;;;8.93;;
22030;SDS011;11179;52.106;21.024;2022-07-01T11:07:33;16.57;;;9.13;;
22030;SDS011;11179;52.106;21.024;2022-07-01T11:10:00;12.30;;;8.93;;
22030;SDS011;11179;52.106;21.024;2022-07-01T11:12:28;12.33;;;8.97;;
22030;SDS011;11179;52.106;21.024;2022-07-01T11:14:55;24.57;;;10.03;;
22030;SDS011;11179;52.106;21.024;2022-07-01T11:17:24;15.23;;;9.53;;
22030;SDS011;11179;52.106;21.024;2022-07-01T11:19:50;15.50;;;9.83;;
22030;SDS011;11179;52.106;21.024;2022-07-01T11:22:23;22.23;;;10.37;;
22030;SDS011;11179;52.106;21.024;2022-07-01T11:24:53;22.37;;;10.63;;
22030;SDS011;11179;52.106;21.024;2022-07-01T11:27:19;18.07;;;7.40;;
22030;SDS011;11179;52.106;21.024;2022-07-01T11:29:50;16.97;;;9.80;;
22030;SDS011;11179;52.106;21.024;2022-07-01T11:32:38;12.83;;;9.87;;
22030;SDS011;11179;52.106;21.024;2022-07-01T11:35:15;12.47;;;9.03;;
22030;SDS011;11179;52.106;21.024;2022-07-01T11:38:04;17.60;;;8.53;;
22030;SDS011;11179;52.106;21.024;2022-07-01T11:41:18;19.17;;;8.63;;
22030;SDS011;11179;52.106;21.024;2022-07-01T11:43:46;25.00;;;9.20;;
22030;SDS011;11179;52.106;21.024;2022-07-01T11:46:12;19.70;;;9.90;;
22030;SDS011;11179;52.106;21.024;2022-07-01T11:51:10;17.37;;;9.47;;
22030;SDS011;11179;52.106;21.024;2022-07-01T11:53:37;14.27;;;8.37;;
22030;SDS011;11179;52.106;21.024;2022-07-01T11:56:32;14.83;;;8.30;;
22030;SDS011;11179;52.106;21.024;2022-07-01T11:59:00;17.33;;;9.77;;
22030;SDS011;11179;52.106;21.024;2022-07-01T12:01:29;12.90;;;9.00;;
22030;SDS011;11179;52.106;21.024;2022-07-01T12:03:58;16.23;;;8.80;;
22030;SDS011;11179;52.106;21.024;2022-07-01T12:06:25;12.97;;;8.50;;
22030;SDS011;11179;52.106;21.024;2022-07-01T12:08:52;13.30;;;8.57;;
22030;SDS011;11179;52.106;21.024;2022-07-01T12:11:18;12.30;;;8.93;;
22030;SDS011;11179;52.106;21.024;2022-07-01T12:13:46;28.50;;;10.50;;
22030;SDS011;11179;52.106;21.024;2022-07-01T12:16:12;15.53;;;8.40;;
22030;SDS011;11179;52.106;21.024;2022-07-01T12:18:38;14.47;;;8.27;;
22030;SDS011;11179;52.106;21.024;2022-07-01T12:21:04;23.17;;;10.20;;
22030;SDS011;11179;52.106;21.024;2022-07-01T12:23:30;14.03;;;9.00;;
22030;SDS011;11179;52.106;21.024;2022-07-01T12:25:57;11.77;;;8.50;;
22030;SDS011;11179;52.106;21.024;2022-07-01T12:31:02;12.47;;;8.40;;
22030;SDS011;11179;52.106;21.024;2022-07-01T12:33:34;15.00;;;8.53;;
22030;SDS011;11179;52.106;21.024;2022-07-01T12:36:05;17.63;;;7.90;;
22030;SDS011;11179;52.106;21.024;2022-07-01T12:38:32;18.07;;;8.30;;
22030;SDS011;11179;52.106;21.024;2022-07-01T12:40:58;14.70;;;7.50;;
22030;SDS011;11179;52.106;21.024;2022-07-01T12:43:27;14.70;;;7.47;;
22030;SDS011;11179;52.106;21.024;2022-07-01T12:45:55;13.17;;;8.50;;
22030;SDS011;11179;52.106;21.024;2022-07-01T12:48:22;11.47;;;7.63;;
22030;SDS011;11179;52.106;21.024;2022-07-01T12:50:47;17.70;;;8.47;;
22030;SDS011;11179;52.106;21.024;2022-07-01T12:53:19;12.67;;;7.70;;
22030;SDS011;11179;52.106;21.024;2022-07-01T12:55:47;12.23;;;7.83;;
22030;SDS011;11179;52.106;21.024;2022-07-01T12:58:17;12.73;;;8.30;;
22030;SDS011;11179;52.106;21.024;2022-07-01T13:00:45;12.80;;;7.17;;
22030;SDS011;11179;52.106;21.024;2022-07-01T13:03:11;17.07;;;8.57;;
22030;SDS011;11179;52.106;21.024;2022-07-01T13:05:38;12.00;;;7.87;;
22030;SDS011;11179;52.106;21.024;2022-07-01T13:08:04;14.00;;;7.63;;
22030;SDS011;11179;52.106;21.024;2022-07-01T13:10:31;10.67;;;7.90;;
22030;SDS011;11179;52.106;21.024;2022-07-01T13:12:57;13.83;;;8.30;;
22030;SDS011;11179;52.106;21.024;2022-07-01T13:15:23;16.50;;;8.20;;
22030;SDS011;11179;52.106;21.024;2022-07-01T13:17:49;26.53;;;7.87;;
22030;SDS011;11179;52.106;21.024;2022-07-01T13:20:15;11.83;;;7.77;;
22030;SDS011;11179;52.106;21.024;2022-07-01T13:22:42;22.60;;;9.37;;
22030;SDS011;11179;52.106;21.024;2022-07-01T13:25:08;12.83;;;8.47;;
22030;SDS011;11179;52.106;21.024;2022-07-01T13:27:35;12.70;;;7.53;;
22030;SDS011;11179;52.106;21.024;2022-07-01T13:30:01;12.73;;;8.10;;
22030;SDS011;11179;52.106;21.024;2022-07-01T13:32:28;19.03;;;8.13;;
22030;SDS011;11179;52.106;21.024;2022-07-01T13:34:53;19.00;;;7.30;;
22030;SDS011;11179;52.106;21.024;2022-07-01T13:37:19;12.93;;;7.63;;
22030;SDS011;11179;52.106;21.024;2022-07-01T13:39:44;12.03;;;6.80;;
22030;SDS011;11179;52.106;21.024;2022-07-01T13:42:10;17.73;;;7.70;;
22030;SDS011;11179;52.106;21.024;2022-07-01T13:44:35;13.80;;;7.67;;
22030;SDS011;11179;52.106;21.024;2022-07-01T13:47:01;16.93;;;7.70;;
22030;SDS011;11179;52.106;21.024;2022-07-01T13:49:27;12.20;;;6.83;;
22030;SDS011;11179;52.106;21.024;2022-07-01T13:51:53;10.20;;;6.43;;
22030;SDS011;11179;52.106;21.024;2022-07-01T13:54:19;17.63;;;7.07;;
22030;SDS011;11179;52.106;21.024;2022-07-01T13:56:44;12.00;;;7.07;;
22030;SDS011;11179;52.106;21.024;2022-07-01T13:59:10;11.00;;;7.37;;
22030;SDS011;11179;52.106;21.024;2022-07-01T14:01:36;10.73;;;6.97;;
22030;SDS011;11179;52.106;21.024;2022-07-01T14:04:02;9.77;;;7.07;;
22030;SDS011;11179;52.106;21.024;2022-07-01T14:06:27;16.07;;;7.23;;
22030;SDS011;11179;52.106;21.024;2022-07-01T14:08:53;15.77;;;7.07;;
22030;SDS011;11179;52.106;21.024;2022-07-01T14:11:18;12.17;;;7.30;;
22030;SDS011;11179;52.106;21.024;2022-07-01T14:13:43;10.43;;;6.57;;
22030;SDS011;11179;52.106;21.024;2022-07-01T14:16:09;10.73;;;7.13;;
22030;SDS011;11179;52.106;21.024;2022-07-01T14:18:35;10.70;;;6.63;;
22030;SDS011;11179;52.106;21.024;2022-07-01T14:21:01;11.90;;;7.30;;
22030;SDS011;11179;52.106;21.024;2022-07-01T14:23:28;14.33;;;7.37;;
22030;SDS011;11179;52.106;21.024;2022-07-01T14:25:53;14.87;;;7.20;;
22030;SDS011;11179;52.106;21.024;2022-07-01T14:28:19;17.17;;;8.00;;
22030;SDS011;11179;52.106;21.024;2022-07-01T14:30:44;13.63;;;7.87;;
22030;SDS011;11179;52.106;21.024;2022-07-01T14:33:10;13.23;;;7.57;;
22030;SDS011;11179;52.106;21.024;2022-07-01T14:35:36;12.43;;;7.33;;
22030;SDS011;11179;52.106;21.024;2022-07-01T14:38:02;12.47;;;7.93;;
22030;SDS011;11179;52.106;21.024;2022-07-01T14:40:28;10.67;;;7.17;;
22030;SDS011;11179;52.106;21.024;2022-07-01T14:42:53;11.10;;;7.60;;
22030;SDS011;11179;52.106;21.024;2022-07-01T14:45:18;15.17;;;7.70;;
22030;SDS011;11179;52.106;21.024;2022-07-01T14:47:44;15.43;;;8.03;;
22030;SDS011;11179;52.106;21.024;2022-07-01T14:50:10;11.63;;;8.43;;